< < Back
Terminal Aerodrome Forecast


Current Version              Previous Versions:   1  2  3  4  5  6  7  8  9  

Terminal Aerodrome Forecast

724
FTUS42 KFFC 180605 RRA
TAFPDK
TAF
KPDK 180605Z 1806/1906 30005KT P6SM FEW250
     FM180800 31003KT P6SM SCT150 BKN250
     FM181500 34005KT P6SM BKN060
     FM190100 31003KT P6SM SCT080 BKN150=



Latest METAR

661
SAUS70 KWBC 180658
MTRPDK
METAR KPDK 180653Z AUTO 29003KT 10SM CLR 03/00 A3011 RMK AO2 SLP207
T00330000


USA.gov is the U.S. government's official web portal to all federal, state and local government web resources and services.